createdAt,value
2023-01-27T00:00:26.511Z,4.38
2023-01-27T00:02:53.346Z,5.00
2023-01-27T00:05:20.177Z,5.43
2023-01-27T00:07:47.074Z,5.05
2023-01-27T00:10:15.955Z,5.18
2023-01-27T00:13:02.026Z,5.15
2023-01-27T00:15:29.337Z,5.15
2023-01-27T00:17:56.096Z,5.47
2023-01-27T00:20:43.366Z,5.00
2023-01-27T00:23:39.606Z,4.55
2023-01-27T00:26:07.708Z,3.67
2023-01-27T00:28:35.276Z,4.03
2023-01-27T00:31:02.192Z,5.30
2023-01-27T00:33:29.055Z,4.35
2023-01-27T00:36:02.369Z,3.83
2023-01-27T00:38:29.715Z,4.72
2023-01-27T00:41:14.807Z,3.70
2023-01-27T00:43:41.835Z,4.35
2023-01-27T00:46:08.741Z,3.75
2023-01-27T00:48:36.125Z,3.95
2023-01-27T00:51:03.104Z,3.80
2023-01-27T00:53:29.835Z,3.85
2023-01-27T00:55:58.214Z,4.30
2023-01-27T00:58:26.192Z,3.92
2023-01-27T01:00:56.569Z,3.70
2023-01-27T01:03:23.491Z,4.00
2023-01-27T01:05:50.283Z,3.55
2023-01-27T01:08:17.177Z,4.03
2023-01-27T01:10:44.063Z,3.63
2023-01-27T01:13:11.989Z,3.70
2023-01-27T01:15:39.590Z,3.67
2023-01-27T01:18:06.520Z,3.20
2023-01-27T01:20:37.387Z,3.30
2023-01-27T01:23:04.602Z,3.15
2023-01-27T01:25:31.387Z,3.88
2023-01-27T01:27:58.139Z,3.70
2023-01-27T01:30:26.474Z,2.95
2023-01-27T01:32:56.593Z,3.67
2023-01-27T01:35:25.140Z,4.25
2023-01-27T01:37:52.921Z,3.92
2023-01-27T01:40:20.075Z,3.40
2023-01-27T01:42:53.101Z,3.28
2023-01-27T01:45:32.061Z,3.78
2023-01-27T01:48:05.152Z,3.42
2023-01-27T01:50:31.999Z,3.03
2023-01-27T01:52:58.949Z,3.90
2023-01-27T01:55:25.761Z,2.90
2023-01-27T01:57:52.493Z,3.90
2023-01-27T02:00:19.401Z,3.58
2023-01-27T02:02:46.741Z,4.13
2023-01-27T02:05:19.514Z,3.22
2023-01-27T02:07:54.277Z,3.20
2023-01-27T02:10:21.154Z,3.60
2023-01-27T02:12:47.927Z,3.70
2023-01-27T02:15:14.956Z,3.33
2023-01-27T02:17:41.894Z,4.32
2023-01-27T02:20:18.954Z,3.20
2023-01-27T02:23:02.590Z,3.40
2023-01-27T02:25:35.563Z,3.20
2023-01-27T02:28:06.719Z,3.55
2023-01-27T02:30:33.703Z,4.05
2023-01-27T02:33:00.647Z,3.20
2023-01-27T02:35:34.988Z,4.32
2023-01-27T02:38:01.794Z,4.07
2023-01-27T02:40:28.539Z,4.47
2023-01-27T02:42:56.338Z,3.95
2023-01-27T02:45:23.172Z,3.67
2023-01-27T02:47:50.285Z,4.00
2023-01-27T02:50:17.442Z,4.57
2023-01-27T02:52:44.268Z,3.58
2023-01-27T02:55:11.364Z,3.38
2023-01-27T02:57:38.327Z,3.83
2023-01-27T03:00:05.404Z,3.80
2023-01-27T03:02:32.385Z,3.63
2023-01-27T03:05:00.258Z,3.88
2023-01-27T03:07:27.135Z,3.90
2023-01-27T03:09:53.855Z,3.72
2023-01-27T03:12:20.591Z,4.00
2023-01-27T03:15:09.602Z,3.85
2023-01-27T03:17:55.841Z,3.80
2023-01-27T03:20:22.951Z,3.88
2023-01-27T03:22:50.043Z,4.65
2023-01-27T03:25:16.866Z,4.43
2023-01-27T03:27:43.661Z,4.07
2023-01-27T03:30:10.813Z,3.40
2023-01-27T03:32:37.509Z,4.03
2023-01-27T03:35:04.709Z,4.00
2023-01-27T03:37:50.247Z,3.63
2023-01-27T03:40:36.586Z,3.90
2023-01-27T03:43:21.752Z,4.13
2023-01-27T03:46:07.926Z,3.95
2023-01-27T03:48:34.940Z,3.40
2023-01-27T03:51:02.633Z,3.83
2023-01-27T03:53:29.471Z,4.50
2023-01-27T03:55:56.148Z,3.65
2023-01-27T03:58:23.979Z,4.40
2023-01-27T04:00:58.369Z,4.35
2023-01-27T04:03:44.507Z,4.45
2023-01-27T04:06:35.026Z,4.10
2023-01-27T04:09:01.868Z,3.90
2023-01-27T04:11:48.166Z,4.53
2023-01-27T04:14:14.996Z,4.30
2023-01-27T04:16:41.725Z,4.15
2023-01-27T04:19:09.257Z,4.32
2023-01-27T04:21:36.001Z,4.03
2023-01-27T04:24:03.804Z,3.80
2023-01-27T04:26:34.584Z,3.90
2023-01-27T04:29:02.368Z,4.30
2023-01-27T04:31:29.127Z,4.40
2023-01-27T04:33:56.149Z,4.30
2023-01-27T04:36:23.039Z,4.53
2023-01-27T04:38:49.820Z,4.20
2023-01-27T04:41:16.681Z,4.25
2023-01-27T04:43:43.444Z,4.15
2023-01-27T04:46:10.262Z,4.90
2023-01-27T04:48:37.084Z,4.68
2023-01-27T04:51:03.922Z,4.45
2023-01-27T04:53:30.709Z,5.20
2023-01-27T04:56:21.862Z,4.75
2023-01-27T04:58:48.773Z,4.30
2023-01-27T05:01:15.508Z,4.25
2023-01-27T05:03:42.226Z,4.57
2023-01-27T05:06:11.081Z,4.00
2023-01-27T05:08:37.990Z,4.82
2023-01-27T05:11:05.117Z,4.90
2023-01-27T05:13:31.990Z,4.80
2023-01-27T05:16:05.944Z,5.15
2023-01-27T05:18:32.793Z,4.72
2023-01-27T05:21:01.325Z,5.88
2023-01-27T05:23:36.913Z,4.85
2023-01-27T05:26:07.410Z,5.03
2023-01-27T05:28:35.094Z,5.30
2023-01-27T05:31:26.328Z,5.22
2023-01-27T05:33:54.032Z,5.50
2023-01-27T05:36:22.356Z,5.18
2023-01-27T05:38:49.303Z,5.30
2023-01-27T05:41:16.942Z,5.40
2023-01-27T05:43:44.267Z,5.55
2023-01-27T05:46:16.140Z,5.60
2023-01-27T05:48:44.677Z,5.18
2023-01-27T05:51:14.562Z,5.38
2023-01-27T05:53:41.928Z,4.43
2023-01-27T05:56:10.679Z,4.50
2023-01-27T05:58:37.805Z,4.53
2023-01-27T06:01:31.606Z,4.95
2023-01-27T06:03:58.878Z,5.15
2023-01-27T06:06:26.658Z,5.03
2023-01-27T06:08:53.570Z,4.35
2023-01-27T06:11:20.643Z,5.30
2023-01-27T06:13:47.794Z,4.25
2023-01-27T06:16:17.923Z,4.43
2023-01-27T06:18:44.759Z,4.78
2023-01-27T06:21:12.114Z,5.13
2023-01-27T06:23:38.987Z,4.90
2023-01-27T06:26:10.683Z,4.50
2023-01-27T06:28:38.116Z,4.95
2023-01-27T06:31:06.748Z,5.07
2023-01-27T06:33:33.535Z,5.05
2023-01-27T06:36:04.230Z,5.50
2023-01-27T06:38:31.161Z,4.47
2023-01-27T06:40:57.951Z,5.00
2023-01-27T06:43:24.846Z,4.68
2023-01-27T06:45:51.825Z,4.38
2023-01-27T06:48:18.631Z,4.32
2023-01-27T06:50:45.484Z,5.00
2023-01-27T06:53:12.394Z,5.40
2023-01-27T06:55:42.308Z,5.25
2023-01-27T06:58:09.598Z,4.75
2023-01-27T07:00:36.952Z,5.03
2023-01-27T07:03:04.013Z,4.30
2023-01-27T07:05:30.931Z,5.30
2023-01-27T07:07:57.804Z,4.53
2023-01-27T07:10:24.680Z,4.90
2023-01-27T07:12:51.419Z,4.60
2023-01-27T07:15:18.220Z,5.88
2023-01-27T07:17:45.081Z,5.75
2023-01-27T07:20:13.177Z,6.38
2023-01-27T07:22:40.100Z,5.85
2023-01-27T07:25:07.152Z,5.45
2023-01-27T07:27:33.868Z,5.35
2023-01-27T07:30:00.669Z,5.13
2023-01-27T07:32:28.613Z,5.53
2023-01-27T07:34:55.498Z,4.72
2023-01-27T07:37:22.280Z,5.47
2023-01-27T07:39:49.011Z,5.40
2023-01-27T07:42:15.768Z,5.75
2023-01-27T07:44:42.512Z,5.20
2023-01-27T07:47:09.383Z,6.40
2023-01-27T07:49:36.204Z,6.13
2023-01-27T07:52:04.252Z,5.35
2023-01-27T07:54:31.029Z,5.63
2023-01-27T07:57:00.479Z,5.97
2023-01-27T07:59:27.525Z,5.93
2023-01-27T08:01:54.295Z,6.50
2023-01-27T08:04:21.064Z,6.03
2023-01-27T08:06:47.877Z,5.35
2023-01-27T08:09:14.667Z,6.15
2023-01-27T08:11:41.443Z,6.57
2023-01-27T08:14:08.187Z,6.35
2023-01-27T08:16:35.008Z,6.18
2023-01-27T08:19:01.837Z,7.65
2023-01-27T08:21:32.829Z,7.18
2023-01-27T08:24:02.704Z,7.10
2023-01-27T08:26:29.531Z,6.18
2023-01-27T08:28:56.333Z,5.85
2023-01-27T08:31:23.135Z,6.70
2023-01-27T08:33:53.601Z,5.15
2023-01-27T08:36:21.160Z,6.43
2023-01-27T08:38:49.531Z,6.53
2023-01-27T08:41:22.110Z,6.38
2023-01-27T08:43:48.853Z,5.75
2023-01-27T08:46:15.998Z,5.53
2023-01-27T08:48:42.855Z,6.55
2023-01-27T08:51:10.819Z,6.78
2023-01-27T08:53:37.646Z,6.35
2023-01-27T08:56:09.176Z,6.40
2023-01-27T08:58:36.067Z,5.95
2023-01-27T09:01:03.977Z,5.50
2023-01-27T09:03:31.347Z,6.00
2023-01-27T09:05:58.134Z,7.03
2023-01-27T09:08:25.141Z,6.40
2023-01-27T09:10:52.010Z,6.28
2023-01-27T09:13:19.215Z,6.15
2023-01-27T09:15:46.420Z,5.80
2023-01-27T09:18:13.223Z,5.38
2023-01-27T09:20:39.992Z,5.65
2023-01-27T09:23:06.895Z,5.18
2023-01-27T09:25:33.674Z,5.15
2023-01-27T09:28:00.559Z,6.22
2023-01-27T09:30:27.818Z,5.20
2023-01-27T09:32:58.951Z,4.53
2023-01-27T09:35:26.253Z,5.05
2023-01-27T09:37:55.315Z,4.97
2023-01-27T09:40:29.388Z,6.15
2023-01-27T09:43:05.891Z,5.60
2023-01-27T09:45:39.046Z,5.88
2023-01-27T09:48:26.787Z,6.13
2023-01-27T09:51:18.089Z,5.57
2023-01-27T09:54:00.781Z,5.53
2023-01-27T09:56:33.457Z,5.60
2023-01-27T09:59:35.509Z,6.47
2023-01-27T10:02:15.248Z,4.95
2023-01-27T10:04:54.115Z,5.80
2023-01-27T10:07:32.449Z,6.25
2023-01-27T10:10:13.038Z,6.53
2023-01-27T10:12:59.078Z,5.45
2023-01-27T10:15:56.667Z,5.40
2023-01-27T10:18:53.868Z,4.60
2023-01-27T10:21:24.855Z,5.20
2023-01-27T10:24:01.595Z,5.25
2023-01-27T10:26:41.486Z,5.20
2023-01-27T10:29:18.178Z,5.25
2023-01-27T10:32:03.203Z,5.15
2023-01-27T10:35:11.970Z,6.20
2023-01-27T10:38:03.856Z,5.72
2023-01-27T10:40:39.264Z,5.20
2023-01-27T10:43:16.839Z,4.75
2023-01-27T10:46:17.780Z,4.72
2023-01-27T10:48:44.595Z,4.85
2023-01-27T10:51:29.409Z,4.05
2023-01-27T10:54:17.615Z,4.50
2023-01-27T10:56:45.860Z,4.38
2023-01-27T10:59:33.414Z,4.55
2023-01-27T11:02:18.083Z,4.63
2023-01-27T11:04:46.234Z,4.00
2023-01-27T11:07:20.301Z,4.38
2023-01-27T11:10:16.191Z,5.22
2023-01-27T11:12:47.912Z,4.28
2023-01-27T11:15:23.701Z,5.00
2023-01-27T11:18:04.064Z,5.55
2023-01-27T11:20:35.746Z,4.78
2023-01-27T11:23:18.294Z,4.82
2023-01-27T11:25:55.164Z,4.63
2023-01-27T11:28:42.741Z,3.97
2023-01-27T11:31:29.582Z,4.55
2023-01-27T11:34:30.604Z,5.07
2023-01-27T11:36:57.566Z,4.22
2023-01-27T11:39:32.295Z,5.88
2023-01-27T11:41:59.585Z,4.50
2023-01-27T11:44:32.138Z,4.60
2023-01-27T11:46:58.910Z,4.22
2023-01-27T11:49:34.522Z,3.83
2023-01-27T11:52:15.789Z,5.22
2023-01-27T11:55:13.615Z,4.60
2023-01-27T11:58:04.163Z,4.53
2023-01-27T12:00:43.959Z,4.55
2023-01-27T12:03:28.443Z,3.65
2023-01-27T12:05:56.542Z,4.13
2023-01-27T12:08:40.055Z,4.15
2023-01-27T12:11:20.135Z,4.55
2023-01-27T12:14:00.338Z,3.70
2023-01-27T12:16:44.248Z,4.07
2023-01-27T12:19:28.123Z,3.60
2023-01-27T12:21:57.316Z,4.00
2023-01-27T12:24:24.096Z,4.20
2023-01-27T12:26:51.751Z,4.10
2023-01-27T12:29:26.966Z,4.18
2023-01-27T12:31:54.781Z,3.70
2023-01-27T12:34:23.468Z,4.63
2023-01-27T12:36:50.197Z,4.28
2023-01-27T12:39:35.357Z,4.15
2023-01-27T12:42:02.248Z,3.80
2023-01-27T12:44:40.051Z,3.80
2023-01-27T12:47:27.602Z,4.43
2023-01-27T12:50:20.631Z,4.40
2023-01-27T12:53:13.194Z,4.20
2023-01-27T12:55:41.969Z,4.82
2023-01-27T12:58:31.411Z,3.67
2023-01-27T13:00:59.126Z,3.80
2023-01-27T13:03:26.153Z,4.50
2023-01-27T13:05:57.201Z,3.85
2023-01-27T13:08:24.316Z,4.10
2023-01-27T13:10:56.821Z,3.88
2023-01-27T13:13:28.014Z,4.45
2023-01-27T13:16:07.056Z,3.75
2023-01-27T13:18:35.194Z,3.40
2023-01-27T13:21:20.763Z,3.70
2023-01-27T13:23:48.099Z,3.97
2023-01-27T13:26:36.917Z,3.45
2023-01-27T13:29:11.277Z,4.15
2023-01-27T13:31:53.958Z,4.00
2023-01-27T13:34:51.213Z,3.40
2023-01-27T13:37:28.345Z,3.40
2023-01-27T13:39:58.274Z,3.63
2023-01-27T13:42:44.842Z,3.90
2023-01-27T13:45:20.522Z,3.75
2023-01-27T13:48:04.896Z,3.75
2023-01-27T13:50:37.990Z,3.78
2023-01-27T13:53:04.749Z,3.40
2023-01-27T13:55:46.830Z,3.22
2023-01-27T13:58:42.879Z,3.40
2023-01-27T14:01:35.058Z,3.97
2023-01-27T14:04:09.032Z,4.28
2023-01-27T14:06:35.698Z,4.03
2023-01-27T14:09:26.722Z,3.42
2023-01-27T14:12:00.443Z,4.22
2023-01-27T14:14:58.178Z,3.35
2023-01-27T14:17:45.836Z,3.80
2023-01-27T14:20:12.845Z,3.50
2023-01-27T14:22:46.185Z,3.80
2023-01-27T14:25:13.074Z,3.33
2023-01-27T14:27:47.474Z,3.30
2023-01-27T14:30:29.456Z,3.83
2023-01-27T14:33:06.691Z,3.90
2023-01-27T14:35:43.156Z,3.70
2023-01-27T14:38:25.368Z,3.45
2023-01-27T14:41:10.340Z,3.20
2023-01-27T14:43:37.199Z,4.13
2023-01-27T14:46:06.843Z,3.38
2023-01-27T14:48:41.310Z,3.60
2023-01-27T14:51:36.113Z,3.83
2023-01-27T14:54:17.224Z,3.45
2023-01-27T14:57:14.432Z,3.83
2023-01-27T15:00:04.976Z,3.75
2023-01-27T15:02:40.060Z,3.30
2023-01-27T15:05:12.753Z,3.55
2023-01-27T15:07:43.304Z,3.42
2023-01-27T15:10:18.786Z,3.30
2023-01-27T15:12:58.544Z,3.70
2023-01-27T15:15:43.587Z,3.67
2023-01-27T15:18:22.204Z,4.03
2023-01-27T15:21:22.564Z,3.72
2023-01-27T15:24:07.457Z,4.35
2023-01-27T15:26:34.227Z,3.85
2023-01-27T15:29:00.927Z,3.83
2023-01-27T15:31:29.163Z,3.72
2023-01-27T15:34:05.131Z,3.33
2023-01-27T15:36:32.957Z,3.55
2023-01-27T15:39:08.970Z,3.67
2023-01-27T15:41:50.924Z,4.20
2023-01-27T15:44:19.226Z,4.25
2023-01-27T15:46:50.054Z,4.60
2023-01-27T15:49:24.473Z,3.88
2023-01-27T15:51:52.311Z,4.15
2023-01-27T15:54:24.803Z,4.47
2023-01-27T15:56:53.394Z,3.30
2023-01-27T15:59:30.844Z,4.07
2023-01-27T16:02:13.203Z,4.00
2023-01-27T16:04:39.997Z,4.30
2023-01-27T16:07:07.227Z,4.35
2023-01-27T16:09:39.337Z,4.05
2023-01-27T16:12:29.264Z,4.80
2023-01-27T16:15:02.220Z,4.50
2023-01-27T16:17:32.494Z,3.80
2023-01-27T16:20:15.557Z,4.20
2023-01-27T16:22:42.338Z,4.05
2023-01-27T16:25:38.355Z,4.60
2023-01-27T16:28:27.523Z,3.95
2023-01-27T16:31:05.849Z,3.50
2023-01-27T16:33:42.243Z,4.20
2023-01-27T16:36:28.713Z,4.75
2023-01-27T16:38:57.497Z,4.30
2023-01-27T16:41:28.249Z,4.47
2023-01-27T16:44:03.426Z,4.22
2023-01-27T16:46:34.580Z,4.35
2023-01-27T16:49:25.698Z,4.20
2023-01-27T16:51:56.408Z,4.35
2023-01-27T16:54:24.751Z,4.05
2023-01-27T16:56:51.897Z,4.38
2023-01-27T16:59:22.988Z,4.18
2023-01-27T17:01:51.479Z,4.43
2023-01-27T17:04:23.019Z,4.07
2023-01-27T17:06:50.323Z,5.43
2023-01-27T17:09:28.352Z,4.85
2023-01-27T17:11:55.741Z,5.05
2023-01-27T17:14:32.051Z,5.00
2023-01-27T17:17:01.164Z,4.82
2023-01-27T17:19:30.220Z,4.75
2023-01-27T17:22:01.445Z,5.30
2023-01-27T17:24:32.829Z,4.55
2023-01-27T17:27:03.831Z,5.03
2023-01-27T17:29:36.906Z,4.80
2023-01-27T17:32:04.355Z,4.35
2023-01-27T17:34:40.100Z,4.78
2023-01-27T17:37:07.017Z,4.65
2023-01-27T17:39:33.780Z,4.75
2023-01-27T17:42:01.591Z,5.80
2023-01-27T17:44:28.379Z,4.97
2023-01-27T17:46:55.130Z,5.30
2023-01-27T17:49:21.852Z,5.70
2023-01-27T17:51:51.476Z,4.80
2023-01-27T17:54:41.441Z,5.63
2023-01-27T17:57:21.669Z,5.93
2023-01-27T17:59:58.572Z,4.78
2023-01-27T18:02:27.210Z,4.50
2023-01-27T18:04:54.389Z,5.60
2023-01-27T18:07:21.252Z,5.60
2023-01-27T18:09:55.215Z,5.55
2023-01-27T18:12:35.384Z,5.57
2023-01-27T18:15:39.654Z,6.47
2023-01-27T18:18:25.890Z,4.95
2023-01-27T18:21:14.566Z,5.32
2023-01-27T18:23:48.084Z,5.85
2023-01-27T18:26:26.668Z,4.75
2023-01-27T18:29:25.924Z,5.13
2023-01-27T18:31:59.597Z,5.75
2023-01-27T18:34:29.904Z,5.30
2023-01-27T18:37:01.369Z,5.90
2023-01-27T18:39:32.566Z,5.25
2023-01-27T18:41:59.972Z,6.40
2023-01-27T18:44:35.907Z,5.68
2023-01-27T18:47:17.858Z,5.25
2023-01-27T18:49:53.484Z,5.55
2023-01-27T18:52:20.176Z,5.60
2023-01-27T18:54:46.892Z,5.38
2023-01-27T18:57:13.667Z,5.25
2023-01-27T18:59:40.375Z,5.43
2023-01-27T19:02:13.859Z,5.68
2023-01-27T19:04:40.697Z,5.63
2023-01-27T19:07:15.946Z,5.35
2023-01-27T19:09:43.944Z,4.55
2023-01-27T19:12:11.021Z,5.72
2023-01-27T19:14:38.479Z,5.13
2023-01-27T19:17:06.204Z,5.65
2023-01-27T19:19:32.967Z,5.28
2023-01-27T19:21:59.770Z,5.47
2023-01-27T19:24:26.538Z,5.55
2023-01-27T19:26:53.330Z,5.40
2023-01-27T19:29:20.158Z,5.85
2023-01-27T19:31:47.036Z,5.20
2023-01-27T19:34:13.835Z,5.53
2023-01-27T19:36:42.732Z,5.57
2023-01-27T19:39:20.039Z,4.85
2023-01-27T19:41:47.096Z,5.32
2023-01-27T19:44:14.445Z,4.93
2023-01-27T19:46:41.685Z,5.70
2023-01-27T19:49:16.098Z,5.35
2023-01-27T19:51:42.885Z,6.13
2023-01-27T19:54:12.354Z,5.00
2023-01-27T19:56:39.147Z,6.15
2023-01-27T19:59:05.895Z,5.47
2023-01-27T20:01:32.688Z,5.57
2023-01-27T20:03:59.581Z,4.80
2023-01-27T20:06:28.085Z,4.80
2023-01-27T20:08:56.013Z,5.47
2023-01-27T20:11:36.905Z,5.35
2023-01-27T20:14:12.213Z,5.18
2023-01-27T20:16:39.361Z,4.50
2023-01-27T20:19:06.197Z,4.70
2023-01-27T20:21:34.447Z,4.10
2023-01-27T20:24:02.081Z,5.25
2023-01-27T20:26:32.481Z,4.97
2023-01-27T20:28:59.334Z,4.55
2023-01-27T20:31:26.323Z,5.95
2023-01-27T20:33:53.129Z,4.75
2023-01-27T20:36:21.680Z,5.30
2023-01-27T20:38:48.528Z,4.07
2023-01-27T20:41:16.892Z,4.43
2023-01-27T20:43:43.718Z,4.82
2023-01-27T20:46:13.994Z,4.60
2023-01-27T20:48:40.942Z,5.00
2023-01-27T20:51:12.332Z,4.72
2023-01-27T20:53:45.686Z,4.65
2023-01-27T20:56:17.546Z,4.35
2023-01-27T20:58:44.640Z,4.93
2023-01-27T21:01:12.990Z,4.00
2023-01-27T21:03:40.044Z,5.10
2023-01-27T21:06:07.468Z,5.15
2023-01-27T21:08:34.291Z,4.60
2023-01-27T21:11:05.140Z,4.38
2023-01-27T21:13:31.914Z,4.05
2023-01-27T21:15:58.633Z,3.97
2023-01-27T21:18:25.593Z,4.35
2023-01-27T21:20:56.531Z,4.15
2023-01-27T21:23:28.039Z,4.07
2023-01-27T21:25:54.950Z,4.03
2023-01-27T21:28:22.155Z,4.20
2023-01-27T21:30:48.967Z,3.25
2023-01-27T21:33:16.083Z,4.57
2023-01-27T21:35:42.875Z,4.20
2023-01-27T21:38:09.798Z,3.38
2023-01-27T21:40:36.580Z,3.80
2023-01-27T21:43:21.777Z,3.67
2023-01-27T21:46:02.587Z,4.13
2023-01-27T21:48:29.357Z,5.45
2023-01-27T21:50:56.072Z,4.25
2023-01-27T21:53:23.559Z,4.50
2023-01-27T21:55:50.393Z,4.70
2023-01-27T21:58:17.216Z,4.45
2023-01-27T22:00:44.011Z,4.95
2023-01-27T22:03:10.833Z,4.78
2023-01-27T22:05:39.211Z,5.07
2023-01-27T22:08:06.878Z,5.13
2023-01-27T22:10:33.641Z,4.70
2023-01-27T22:13:03.475Z,5.78
2023-01-27T22:15:30.283Z,6.20
2023-01-27T22:17:57.763Z,6.57
2023-01-27T22:20:24.448Z,5.82
2023-01-27T22:22:51.843Z,5.80
2023-01-27T22:25:18.774Z,5.00
2023-01-27T22:27:45.931Z,5.55
2023-01-27T22:30:14.500Z,5.93
2023-01-27T22:32:41.574Z,5.55
2023-01-27T22:35:08.670Z,4.90
2023-01-27T22:37:35.485Z,4.70
2023-01-27T22:40:02.345Z,5.30
2023-01-27T22:42:29.358Z,5.05
2023-01-27T22:44:56.116Z,5.60
2023-01-27T22:47:22.847Z,4.20
2023-01-27T22:49:49.611Z,4.97
2023-01-27T22:52:16.779Z,5.55
2023-01-27T22:54:43.975Z,5.38
2023-01-27T22:57:10.775Z,5.32
2023-01-27T22:59:37.942Z,5.03
2023-01-27T23:02:04.713Z,5.13
2023-01-27T23:04:31.419Z,5.45
2023-01-27T23:06:58.207Z,5.20
2023-01-27T23:09:24.907Z,4.80
2023-01-27T23:11:51.692Z,4.85
2023-01-27T23:14:18.813Z,5.05
2023-01-27T23:16:45.582Z,5.53
2023-01-27T23:19:12.411Z,5.22
2023-01-27T23:21:39.195Z,5.40
2023-01-27T23:24:07.583Z,4.35
2023-01-27T23:26:34.535Z,5.30
2023-01-27T23:29:01.313Z,3.90
2023-01-27T23:31:28.367Z,4.00
2023-01-27T23:33:55.174Z,4.40
2023-01-27T23:36:23.179Z,4.70
2023-01-27T23:38:49.952Z,4.93
2023-01-27T23:41:20.148Z,5.00
2023-01-27T23:43:55.293Z,5.13
2023-01-27T23:46:22.687Z,5.80
2023-01-27T23:48:53.421Z,5.10
2023-01-27T23:51:20.502Z,5.40
2023-01-27T23:53:47.414Z,5.25
2023-01-27T23:56:18.495Z,4.78
2023-01-27T23:58:45.394Z,5.55
